createdAt,value
2018-12-24T00:01:53.609Z,6.09
2018-12-24T00:04:26.719Z,6.06
2018-12-24T00:07:04.390Z,6.04
2018-12-24T00:09:38.441Z,6.02
2018-12-24T00:12:13.591Z,5.98
2018-12-24T00:14:47.996Z,5.99
2018-12-24T00:17:20.903Z,6.00
2018-12-24T00:19:55.461Z,6.00
2018-12-24T00:22:28.917Z,5.99
2018-12-24T00:25:01.939Z,5.91
2018-12-24T00:27:36.872Z,5.84
2018-12-24T00:30:16.168Z,5.75
2018-12-24T00:32:49.196Z,5.70
2018-12-24T00:35:22.347Z,5.71
2018-12-24T00:37:55.675Z,5.64
2018-12-24T00:40:28.696Z,5.69
2018-12-24T00:43:01.595Z,5.64
2018-12-24T00:45:37.346Z,5.60
2018-12-24T00:48:25.642Z,5.62
2018-12-24T00:50:58.664Z,5.62
2018-12-24T00:53:33.948Z,5.65
2018-12-24T00:56:06.912Z,5.68
2018-12-24T00:58:39.811Z,5.69
2018-12-24T01:01:13.691Z,5.72
2018-12-24T01:03:46.905Z,5.74
2018-12-24T01:06:20.671Z,5.73
2018-12-24T01:08:57.321Z,5.75
2018-12-24T01:11:30.341Z,5.75
2018-12-24T01:14:03.964Z,5.73
2018-12-24T01:16:38.407Z,5.73
2018-12-24T01:19:12.029Z,5.71
2018-12-24T01:21:45.836Z,5.72
2018-12-24T01:24:19.945Z,5.72
2018-12-24T01:26:54.067Z,5.74
2018-12-24T01:29:26.969Z,5.75
2018-12-24T01:32:00.362Z,5.74
2018-12-24T01:34:33.302Z,5.73
2018-12-24T01:37:07.645Z,5.75
2018-12-24T01:39:41.771Z,5.82
2018-12-24T01:42:15.849Z,5.77
2018-12-24T01:44:49.020Z,5.74
2018-12-24T01:47:22.564Z,5.78
2018-12-24T01:49:55.586Z,5.80
2018-12-24T01:52:28.552Z,5.81
2018-12-24T01:55:03.934Z,5.83
2018-12-24T01:57:37.000Z,5.81
2018-12-24T02:00:09.996Z,5.77
2018-12-24T02:02:45.592Z,5.75
2018-12-24T02:05:18.306Z,5.77
2018-12-24T02:07:51.381Z,5.75
2018-12-24T02:10:24.769Z,5.74
2018-12-24T02:12:57.752Z,5.74
2018-12-24T02:15:30.741Z,5.74
2018-12-24T02:18:05.024Z,5.78
2018-12-24T02:20:38.359Z,5.80
2018-12-24T02:23:13.176Z,5.80
2018-12-24T02:25:46.563Z,5.83
2018-12-24T02:28:19.564Z,5.87
2018-12-24T02:30:52.622Z,5.90
2018-12-24T02:33:29.818Z,5.91
2018-12-24T02:36:02.804Z,5.90
2018-12-24T02:38:36.122Z,5.91
2018-12-24T02:41:09.617Z,5.90
2018-12-24T02:43:42.950Z,5.92
2018-12-24T02:46:15.778Z,5.97
2018-12-24T02:48:50.216Z,5.95
2018-12-24T02:51:23.757Z,5.93
2018-12-24T02:53:57.066Z,5.95
2018-12-24T02:56:33.469Z,5.97
2018-12-24T02:59:06.525Z,5.97
2018-12-24T03:01:39.427Z,5.96
2018-12-24T03:04:12.868Z,5.95
2018-12-24T03:06:45.800Z,5.97
2018-12-24T03:09:19.145Z,5.96
2018-12-24T03:11:52.568Z,5.98
2018-12-24T03:14:25.388Z,6.00
2018-12-24T03:16:58.180Z,6.03
2018-12-24T03:19:31.547Z,6.03
2018-12-24T03:22:04.369Z,6.03
2018-12-24T03:24:38.205Z,6.03
2018-12-24T03:27:11.588Z,6.02
2018-12-24T03:29:44.859Z,6.03
2018-12-24T03:32:17.803Z,6.02
2018-12-24T03:34:51.634Z,6.05
2018-12-24T03:37:24.898Z,6.07
2018-12-24T03:39:57.708Z,6.06
2018-12-24T03:42:32.370Z,6.03
2018-12-24T03:45:06.921Z,6.03
2018-12-24T03:47:39.796Z,6.04
2018-12-24T03:50:14.135Z,6.03
2018-12-24T03:52:47.622Z,6.02
2018-12-24T03:55:20.512Z,6.03
2018-12-24T03:57:53.980Z,6.02
2018-12-24T04:00:27.160Z,6.02
2018-12-24T04:03:00.383Z,6.00
2018-12-24T04:05:33.747Z,6.02
2018-12-24T04:08:06.898Z,6.03
2018-12-24T04:10:40.506Z,6.02
2018-12-24T04:13:22.346Z,6.01
2018-12-24T04:15:55.928Z,5.99
2018-12-24T04:18:28.734Z,6.02
2018-12-24T04:21:03.140Z,5.99
2018-12-24T04:23:36.180Z,5.99
2018-12-24T04:26:09.152Z,5.99
2018-12-24T04:28:42.817Z,6.04
2018-12-24T04:31:15.689Z,6.05
2018-12-24T04:33:48.795Z,6.03
2018-12-24T04:36:22.078Z,6.04
2018-12-24T04:38:55.018Z,6.04
2018-12-24T04:41:28.045Z,6.04
2018-12-24T04:44:02.532Z,6.02
2018-12-24T04:46:35.443Z,5.99
2018-12-24T04:49:08.271Z,5.97
2018-12-24T04:51:42.616Z,5.97
2018-12-24T04:54:15.470Z,5.98
2018-12-24T04:56:48.710Z,5.98
2018-12-24T04:59:22.348Z,5.99
2018-12-24T05:01:55.511Z,5.98
2018-12-24T05:04:28.463Z,5.98
2018-12-24T05:07:01.827Z,5.96
2018-12-24T05:09:35.417Z,5.97
2018-12-24T05:12:08.341Z,6.02
2018-12-24T05:14:42.875Z,6.01
2018-12-24T05:17:15.808Z,6.03
2018-12-24T05:19:48.957Z,6.03
2018-12-24T05:22:22.395Z,6.06
2018-12-24T05:24:55.219Z,6.06
2018-12-24T05:27:28.212Z,6.06
2018-12-24T05:30:03.867Z,6.10
2018-12-24T05:32:36.854Z,6.08
2018-12-24T05:35:09.823Z,6.11
2018-12-24T05:37:44.207Z,6.09
2018-12-24T05:40:17.865Z,6.08
2018-12-24T05:42:50.828Z,6.07
2018-12-24T05:45:24.185Z,6.09
2018-12-24T05:47:57.187Z,6.08
2018-12-24T05:50:31.545Z,6.10
2018-12-24T05:53:05.862Z,6.08
2018-12-24T05:55:38.839Z,6.10
2018-12-24T05:58:11.768Z,6.09
2018-12-24T06:00:46.233Z,6.08
2018-12-24T06:03:19.196Z,6.08
2018-12-24T06:05:54.854Z,6.08
2018-12-24T06:08:29.896Z,6.08
2018-12-24T06:11:06.935Z,6.07
2018-12-24T06:13:48.224Z,6.06
2018-12-24T06:16:21.569Z,6.09
2018-12-24T06:18:54.528Z,6.09
2018-12-24T06:21:27.519Z,6.09
2018-12-24T06:24:00.520Z,6.12
2018-12-24T06:26:33.485Z,6.13
2018-12-24T06:29:06.804Z,6.13
2018-12-24T06:31:40.264Z,6.12
2018-12-24T06:34:13.287Z,6.10
2018-12-24T06:36:46.099Z,6.11
2018-12-24T06:39:20.565Z,6.11
2018-12-24T06:41:53.430Z,6.13
2018-12-24T06:44:26.519Z,6.11
2018-12-24T06:47:00.502Z,6.10
2018-12-24T06:49:35.268Z,6.12
2018-12-24T06:52:08.267Z,6.11
2018-12-24T06:54:42.000Z,6.11
2018-12-24T06:57:14.895Z,6.14
2018-12-24T06:59:47.860Z,6.12
2018-12-24T07:02:22.268Z,6.10
2018-12-24T07:04:55.511Z,6.11
2018-12-24T07:07:30.619Z,6.09
2018-12-24T07:10:04.432Z,6.07
2018-12-24T07:12:41.057Z,6.03
2018-12-24T07:15:19.704Z,5.98
2018-12-24T07:17:53.263Z,5.93
2018-12-24T07:20:27.119Z,5.93
2018-12-24T07:23:00.078Z,5.93
2018-12-24T07:25:33.934Z,5.94
2018-12-24T07:28:08.520Z,5.96
2018-12-24T07:30:41.577Z,5.95
2018-12-24T07:33:14.610Z,5.97
2018-12-24T07:35:48.209Z,5.95
2018-12-24T07:38:21.139Z,5.97
2018-12-24T07:40:54.088Z,5.96
2018-12-24T07:43:28.204Z,5.98
2018-12-24T07:46:02.430Z,6.01
2018-12-24T07:48:37.789Z,5.96
2018-12-24T07:51:10.830Z,5.96
2018-12-24T07:53:43.729Z,5.94
2018-12-24T07:56:17.648Z,5.93
2018-12-24T07:58:50.608Z,5.91
2018-12-24T08:01:23.816Z,5.95
2018-12-24T08:03:58.218Z,5.92
2018-12-24T08:06:31.380Z,5.92
2018-12-24T08:09:08.821Z,5.92
2018-12-24T08:11:44.595Z,5.89
2018-12-24T08:14:17.728Z,5.87
2018-12-24T08:16:50.645Z,5.87
2018-12-24T08:19:23.690Z,5.89
2018-12-24T08:21:56.677Z,5.89
2018-12-24T08:24:30.438Z,5.94
2018-12-24T08:27:03.564Z,5.94
2018-12-24T08:29:36.515Z,5.93
2018-12-24T08:32:11.479Z,5.89
2018-12-24T08:34:44.645Z,5.85
2018-12-24T08:37:19.404Z,5.90
2018-12-24T08:39:52.986Z,5.92
2018-12-24T08:42:25.824Z,5.89
2018-12-24T08:44:59.736Z,5.87
2018-12-24T08:47:37.557Z,5.92
2018-12-24T08:50:10.546Z,5.92
2018-12-24T08:52:45.872Z,5.98
2018-12-24T08:55:18.841Z,5.97
2018-12-24T08:57:53.357Z,5.99
2018-12-24T09:00:27.288Z,5.97
2018-12-24T09:03:00.257Z,5.92
2018-12-24T09:05:34.267Z,5.90
2018-12-24T09:08:08.119Z,5.88
2018-12-24T09:10:40.965Z,5.89
2018-12-24T09:13:14.816Z,5.90
2018-12-24T09:15:47.785Z,5.88
2018-12-24T09:18:21.187Z,5.87
2018-12-24T09:20:54.675Z,5.89
2018-12-24T09:23:28.591Z,5.91
2018-12-24T09:26:02.812Z,5.90
2018-12-24T09:28:35.924Z,5.96
2018-12-24T09:31:10.393Z,5.94
2018-12-24T09:33:43.761Z,5.96
2018-12-24T09:36:18.651Z,6.01
2018-12-24T09:38:52.145Z,6.07
2018-12-24T09:41:29.665Z,6.04
2018-12-24T09:44:02.656Z,6.01
2018-12-24T09:46:36.536Z,6.03
2018-12-24T09:49:09.945Z,5.97
2018-12-24T09:51:44.158Z,5.95
2018-12-24T09:54:17.222Z,5.89
2018-12-24T09:56:52.221Z,5.83
2018-12-24T09:59:30.155Z,5.76
2018-12-24T10:02:04.762Z,5.71
2018-12-24T10:04:48.869Z,5.56
2018-12-24T10:07:45.581Z,5.46
2018-12-24T10:10:20.348Z,5.39
2018-12-24T10:12:53.769Z,5.35
2018-12-24T10:15:27.500Z,5.28
2018-12-24T10:18:09.807Z,5.19
2018-12-24T10:20:48.129Z,5.10
2018-12-24T10:23:22.709Z,5.03
2018-12-24T10:25:58.624Z,5.10
2018-12-24T10:28:31.470Z,5.54
2018-12-24T10:31:05.353Z,5.99
2018-12-24T10:33:38.404Z,6.34
2018-12-24T10:36:13.118Z,6.57
2018-12-24T10:38:47.523Z,6.77
2018-12-24T10:41:26.913Z,6.98
2018-12-24T10:44:02.274Z,7.16
2018-12-24T10:46:35.453Z,7.14
2018-12-24T10:49:10.744Z,7.09
2018-12-24T10:51:43.685Z,7.18
2018-12-24T10:54:17.267Z,7.25
2018-12-24T10:56:56.719Z,7.32
2018-12-24T10:59:30.434Z,7.41
2018-12-24T11:02:07.470Z,7.50
2018-12-24T11:04:40.447Z,7.62
2018-12-24T11:07:13.843Z,7.68
2018-12-24T11:09:50.616Z,7.69
2018-12-24T11:12:27.049Z,7.74
2018-12-24T11:15:02.578Z,7.83
2018-12-24T11:17:36.541Z,7.88
2018-12-24T11:20:10.879Z,8.05
2018-12-24T11:22:45.623Z,8.01
2018-12-24T11:25:19.528Z,7.94
2018-12-24T11:27:56.574Z,7.53
2018-12-24T11:30:30.699Z,7.47
2018-12-24T11:33:05.155Z,7.26
2018-12-24T11:35:38.759Z,7.00
2018-12-24T11:38:11.780Z,6.80
2018-12-24T11:40:48.179Z,6.54
2018-12-24T11:43:22.554Z,6.28
2018-12-24T11:45:56.757Z,6.10
2018-12-24T11:48:31.397Z,5.97
2018-12-24T11:51:04.675Z,5.99
2018-12-24T11:53:38.861Z,6.03
2018-12-24T11:56:13.995Z,6.11
2018-12-24T11:58:48.810Z,6.44
2018-12-24T12:01:22.467Z,6.66
2018-12-24T12:03:57.038Z,6.66
2018-12-24T12:06:30.828Z,6.99
2018-12-24T12:09:10.492Z,7.33
2018-12-24T12:11:44.265Z,7.50
2018-12-24T12:14:17.238Z,7.69
2018-12-24T12:16:52.568Z,7.74
2018-12-24T12:19:26.658Z,7.89
2018-12-24T12:22:01.255Z,8.00
2018-12-24T12:24:36.513Z,8.11
2018-12-24T12:27:10.432Z,8.19
2018-12-24T12:29:44.171Z,8.15
2018-12-24T12:32:18.748Z,7.68
2018-12-24T12:34:52.871Z,7.10
2018-12-24T12:37:31.973Z,6.78
2018-12-24T12:40:06.310Z,6.81
2018-12-24T12:42:39.298Z,7.01
2018-12-24T12:45:15.026Z,7.23
2018-12-24T12:47:47.873Z,7.42
2018-12-24T12:50:26.359Z,7.60
2018-12-24T12:53:00.357Z,7.68
2018-12-24T12:55:33.373Z,7.31
2018-12-24T12:58:06.826Z,6.85
2018-12-24T13:00:40.953Z,6.44
2018-12-24T13:03:14.639Z,6.09
2018-12-24T13:05:48.246Z,5.95
2018-12-24T13:08:24.247Z,6.07
2018-12-24T13:10:57.278Z,6.01
2018-12-24T13:13:36.684Z,5.97
2018-12-24T13:16:11.033Z,6.20
2018-12-24T13:18:43.960Z,6.34
2018-12-24T13:21:18.408Z,6.25
2018-12-24T13:23:51.946Z,6.37
2018-12-24T13:26:25.052Z,6.54
2018-12-24T13:28:58.648Z,6.50
2018-12-24T13:31:33.325Z,6.56
2018-12-24T13:34:07.180Z,6.70
2018-12-24T13:36:43.378Z,6.91
2018-12-24T13:39:16.519Z,6.74
2018-12-24T13:41:50.135Z,6.50
2018-12-24T13:44:23.492Z,6.44
2018-12-24T13:46:56.564Z,6.37
2018-12-24T13:49:30.284Z,6.43
2018-12-24T13:52:04.088Z,6.35
2018-12-24T13:54:37.750Z,6.26
2018-12-24T13:57:12.486Z,6.21
2018-12-24T13:59:46.684Z,6.15
2018-12-24T14:02:19.786Z,6.03
2018-12-24T14:04:53.378Z,5.91
2018-12-24T14:07:28.645Z,5.84
2018-12-24T14:10:01.619Z,5.72
2018-12-24T14:12:34.639Z,5.63
2018-12-24T14:15:08.647Z,5.55
2018-12-24T14:17:54.602Z,5.47
2018-12-24T14:20:29.011Z,5.52
2018-12-24T14:23:04.455Z,5.64
2018-12-24T14:25:38.579Z,6.03
2018-12-24T14:28:12.769Z,6.52
2018-12-24T14:30:46.733Z,6.96
2018-12-24T14:33:21.003Z,7.31
2018-12-24T14:35:54.608Z,7.57
2018-12-24T14:38:27.620Z,7.71
2018-12-24T14:41:00.538Z,7.61
2018-12-24T14:43:34.034Z,7.49
2018-12-24T14:46:06.903Z,7.40
2018-12-24T14:48:40.538Z,7.08
2018-12-24T14:51:18.140Z,6.76
2018-12-24T14:54:07.223Z,6.47
2018-12-24T14:56:41.457Z,6.17
2018-12-24T14:59:16.077Z,5.96
2018-12-24T15:01:48.993Z,5.80
2018-12-24T15:04:22.822Z,5.65
2018-12-24T15:06:56.055Z,5.43
2018-12-24T15:09:29.580Z,5.25
2018-12-24T15:12:04.212Z,5.06
2018-12-24T15:14:37.944Z,4.93
2018-12-24T15:17:11.821Z,4.75
2018-12-24T15:19:46.267Z,4.66
2018-12-24T15:22:19.639Z,4.56
2018-12-24T15:24:52.650Z,4.45
2018-12-24T15:27:26.445Z,4.33
2018-12-24T15:30:00.768Z,4.26
2018-12-24T15:32:34.593Z,4.16
2018-12-24T15:35:09.056Z,4.00
2018-12-24T15:37:43.393Z,3.83
2018-12-24T15:40:16.766Z,3.66
2018-12-24T15:42:50.489Z,3.59
2018-12-24T15:45:23.443Z,3.51
2018-12-24T15:47:56.264Z,3.39
2018-12-24T15:50:29.235Z,3.20
2018-12-24T15:53:03.906Z,3.00
2018-12-24T15:55:38.070Z,2.73
2018-12-24T15:58:11.880Z,2.47
2018-12-24T16:00:44.856Z,2.29
2018-12-24T16:03:25.527Z,2.17
2018-12-24T16:06:01.516Z,2.15
2018-12-24T16:08:37.801Z,2.22
2018-12-24T16:11:11.184Z,2.25
2018-12-24T16:13:44.701Z,2.22
2018-12-24T16:16:19.099Z,2.11
2018-12-24T16:18:55.885Z,1.98
2018-12-24T16:21:29.542Z,1.86
2018-12-24T16:24:03.015Z,1.76
2018-12-24T16:26:36.048Z,1.71
2018-12-24T16:29:16.197Z,1.64
2018-12-24T16:31:50.151Z,1.56
2018-12-24T16:34:25.800Z,1.53
2018-12-24T16:37:01.522Z,1.46
2018-12-24T16:39:59.392Z,1.38
2018-12-24T16:42:36.962Z,1.29
2018-12-24T16:45:12.580Z,1.15
2018-12-24T16:47:54.320Z,0.98
2018-12-24T16:50:29.635Z,0.89
2018-12-24T16:53:06.360Z,0.80
2018-12-24T16:55:40.543Z,0.63
2018-12-24T16:58:15.393Z,0.56
2018-12-24T17:00:53.593Z,0.62
2018-12-24T17:03:27.454Z,0.73
2018-12-24T17:06:00.369Z,0.68
2018-12-24T17:08:35.396Z,0.52
2018-12-24T17:11:09.324Z,0.35
2018-12-24T17:13:43.100Z,0.36
2018-12-24T17:16:17.365Z,0.35
2018-12-24T17:18:50.266Z,0.21
2018-12-24T17:21:23.302Z,0.05
2018-12-24T17:23:57.496Z,-0.03
2018-12-24T17:26:31.413Z,-0.17
2018-12-24T17:29:05.288Z,-0.25
2018-12-24T17:31:39.323Z,-0.25
2018-12-24T17:34:13.127Z,-0.24
2018-12-24T17:36:47.084Z,-0.19
2018-12-24T17:39:20.490Z,-0.26
2018-12-24T17:41:57.337Z,-0.31
2018-12-24T17:44:31.015Z,-0.23
2018-12-24T17:47:05.683Z,-0.27
2018-12-24T17:49:40.652Z,-0.37
2018-12-24T17:52:14.671Z,-0.44
2018-12-24T17:54:48.039Z,-0.49
2018-12-24T17:57:22.569Z,-0.58
2018-12-24T17:59:55.444Z,-0.73
2018-12-24T18:02:28.799Z,-0.84
2018-12-24T18:05:01.758Z,-0.87
2018-12-24T18:07:34.779Z,-0.84
2018-12-24T18:10:07.713Z,-0.80
2018-12-24T18:12:42.524Z,-0.89
2018-12-24T18:15:19.538Z,-0.92
2018-12-24T18:17:53.743Z,-0.89
2018-12-24T18:20:27.239Z,-0.70
2018-12-24T18:23:00.293Z,-0.80
2018-12-24T18:25:35.091Z,-0.99
2018-12-24T18:28:09.710Z,-1.09
2018-12-24T18:30:44.148Z,-0.87
2018-12-24T18:33:17.666Z,-0.85
2018-12-24T18:35:51.306Z,-0.83
2018-12-24T18:38:25.677Z,-0.81
2018-12-24T18:41:00.661Z,-0.88
2018-12-24T18:43:34.214Z,-0.69
2018-12-24T18:46:07.591Z,-0.64
2018-12-24T18:48:41.376Z,-0.85
2018-12-24T18:51:14.391Z,-1.08
2018-12-24T18:53:47.625Z,-1.09
2018-12-24T18:56:20.463Z,-1.11
2018-12-24T18:58:53.325Z,-1.09
2018-12-24T19:01:26.900Z,-0.94
2018-12-24T19:04:00.958Z,-0.88
2018-12-24T19:06:33.884Z,-1.00
2018-12-24T19:09:08.328Z,-1.11
2018-12-24T19:11:41.290Z,-1.07
2018-12-24T19:14:14.359Z,-1.00
2018-12-24T19:16:48.144Z,-0.76
2018-12-24T19:19:21.970Z,-0.48
2018-12-24T19:21:56.084Z,-0.35
2018-12-24T19:24:38.384Z,-0.16
2018-12-24T19:27:11.293Z,0.03
2018-12-24T19:29:50.557Z,0.12
2018-12-24T19:32:26.612Z,0.15
2018-12-24T19:35:03.215Z,0.18
2018-12-24T19:37:36.588Z,0.22
2018-12-24T19:40:11.697Z,0.23
2018-12-24T19:42:45.461Z,0.34
2018-12-24T19:46:28.897Z,0.41
2018-12-24T19:49:03.758Z,0.39
2018-12-24T19:51:43.664Z,0.44
2018-12-24T19:54:21.277Z,0.49
2018-12-24T19:56:54.694Z,0.54
2018-12-24T19:59:34.048Z,0.60
2018-12-24T20:02:09.766Z,0.73
2018-12-24T20:04:44.081Z,0.86
2018-12-24T20:07:19.352Z,0.89
2018-12-24T20:09:54.590Z,0.90
2018-12-24T20:12:30.224Z,0.94
2018-12-24T20:15:06.548Z,0.95
2018-12-24T20:17:40.184Z,1.00
2018-12-24T20:20:13.987Z,0.99
2018-12-24T20:22:47.619Z,0.97
2018-12-24T20:25:23.406Z,0.97
2018-12-24T20:27:58.403Z,0.98
2018-12-24T20:30:31.408Z,1.01
2018-12-24T20:33:04.910Z,1.00
2018-12-24T20:35:38.860Z,1.00
2018-12-24T20:38:13.521Z,1.00
2018-12-24T20:40:47.345Z,1.01
2018-12-24T20:43:22.188Z,1.02
2018-12-24T20:45:55.970Z,1.05
2018-12-24T20:48:30.490Z,1.09
2018-12-24T20:51:04.720Z,1.13
2018-12-24T20:53:37.823Z,1.19
2018-12-24T20:56:12.913Z,1.29
2018-12-24T20:58:47.370Z,1.31
2018-12-24T21:01:21.547Z,1.34
2018-12-24T21:03:56.185Z,1.42
2018-12-24T21:06:29.836Z,1.51
2018-12-24T21:09:04.817Z,1.55
2018-12-24T21:11:41.120Z,1.58
2018-12-24T21:14:17.092Z,1.58
2018-12-24T21:16:50.764Z,1.58
2018-12-24T21:19:24.795Z,1.62
2018-12-24T21:21:59.917Z,1.61
2018-12-24T21:24:32.867Z,1.59
2018-12-24T21:27:06.756Z,1.57
2018-12-24T21:29:41.295Z,1.53
2018-12-24T21:32:14.295Z,1.54
2018-12-24T21:34:48.056Z,1.56
2018-12-24T21:37:21.221Z,1.57
2018-12-24T21:39:54.197Z,1.65
2018-12-24T21:42:27.724Z,1.86
2018-12-24T21:45:03.902Z,2.06
2018-12-24T21:47:37.638Z,2.21
2018-12-24T21:50:13.672Z,2.30
2018-12-24T21:52:46.972Z,2.36
2018-12-24T21:55:19.998Z,2.45
2018-12-24T21:57:53.475Z,2.51
2018-12-24T22:00:28.058Z,2.51
2018-12-24T22:03:02.142Z,2.54
2018-12-24T22:05:36.496Z,2.46
2018-12-24T22:08:09.985Z,2.42
2018-12-24T22:10:43.981Z,2.52
2018-12-24T22:13:17.871Z,2.58
2018-12-24T22:15:56.759Z,2.64
2018-12-24T22:18:32.370Z,2.67
2018-12-24T22:21:07.445Z,2.69
2018-12-24T22:23:41.375Z,2.73
2018-12-24T22:26:15.741Z,2.76
2018-12-24T22:28:49.715Z,2.78
2018-12-24T22:31:25.242Z,2.77
2018-12-24T22:33:58.269Z,2.75
2018-12-24T22:36:32.727Z,2.78
2018-12-24T22:39:08.630Z,2.80
2018-12-24T22:41:42.620Z,2.83
2018-12-24T22:44:17.297Z,2.84
2018-12-24T22:46:50.493Z,2.83
2018-12-24T22:49:24.558Z,2.85
2018-12-24T22:51:58.826Z,2.91
2018-12-24T22:54:32.644Z,2.92
2018-12-24T22:57:05.641Z,2.87
2018-12-24T22:59:39.247Z,2.86
2018-12-24T23:02:12.274Z,2.92
2018-12-24T23:04:45.179Z,2.97
2018-12-24T23:07:18.530Z,2.99
2018-12-24T23:09:52.365Z,3.04
2018-12-24T23:12:27.706Z,3.07
2018-12-24T23:15:05.046Z,3.09
2018-12-24T23:17:39.222Z,3.11
2018-12-24T23:20:16.424Z,3.11
2018-12-24T23:22:51.063Z,3.12
2018-12-24T23:25:24.035Z,3.16
2018-12-24T23:28:02.934Z,3.17
2018-12-24T23:30:36.663Z,3.19
2018-12-24T23:33:11.399Z,3.25
2018-12-24T23:35:45.832Z,3.26
2018-12-24T23:38:18.872Z,3.26
2018-12-24T23:40:51.854Z,3.27
2018-12-24T23:43:25.449Z,3.31
2018-12-24T23:46:02.025Z,3.31
2018-12-24T23:48:36.195Z,3.29
2018-12-24T23:51:09.703Z,3.27
2018-12-24T23:53:42.630Z,3.26
2018-12-24T23:56:17.631Z,3.26
2018-12-24T23:58:54.175Z,3.28
